sensor_id;sensor_type;location;lat;lon;timestamp;temperature;humidity
37446;DHT22;23307;51.136;14.942;2023-06-22T00:01:15;24.10;98.30
37446;DHT22;23307;51.136;14.942;2023-06-22T00:03:41;24.10;98.30
37446;DHT22;23307;51.136;14.942;2023-06-22T00:06:07;24.10;98.40
37446;DHT22;23307;51.136;14.942;2023-06-22T00:08:32;24.10;98.40
37446;DHT22;23307;51.136;14.942;2023-06-22T00:10:58;24.00;98.40
37446;DHT22;23307;51.136;14.942;2023-06-22T00:13:23;24.10;98.40
37446;DHT22;23307;51.136;14.942;2023-06-22T00:15:49;24.00;98.40
37446;DHT22;23307;51.136;14.942;2023-06-22T00:18:14;24.00;98.40
37446;DHT22;23307;51.136;14.942;2023-06-22T00:20:41;24.00;98.40
37446;DHT22;23307;51.136;14.942;2023-06-22T00:23:07;23.90;98.50
37446;DHT22;23307;51.136;14.942;2023-06-22T00:25:35;23.80;98.60
37446;DHT22;23307;51.136;14.942;2023-06-22T00:28:01;23.80;98.70
37446;DHT22;23307;51.136;14.942;2023-06-22T00:30:26;23.70;98.70
37446;DHT22;23307;51.136;14.942;2023-06-22T00:32:52;23.70;99.00
37446;DHT22;23307;51.136;14.942;2023-06-22T00:35:17;23.50;99.30
37446;DHT22;23307;51.136;14.942;2023-06-22T00:37:43;23.50;99.70
37446;DHT22;23307;51.136;14.942;2023-06-22T00:40:09;23.30;99.90
37446;DHT22;23307;51.136;14.942;2023-06-22T00:42:40;23.30;99.90
37446;DHT22;23307;51.136;14.942;2023-06-22T00:45:07;23.20;99.90
37446;DHT22;23307;51.136;14.942;2023-06-22T00:47:34;23.20;99.90
37446;DHT22;23307;51.136;14.942;2023-06-22T00:50:01;23.20;99.90
37446;DHT22;23307;51.136;14.942;2023-06-22T00:52:28;23.20;99.90
37446;DHT22;23307;51.136;14.942;2023-06-22T00:54:56;23.20;99.90
37446;DHT22;23307;51.136;14.942;2023-06-22T00:57:23;23.20;99.90
37446;DHT22;23307;51.136;14.942;2023-06-22T00:59:51;23.10;99.90
37446;DHT22;23307;51.136;14.942;2023-06-22T01:02:16;23.10;99.90
37446;DHT22;23307;51.136;14.942;2023-06-22T01:04:42;23.10;99.90
37446;DHT22;23307;51.136;14.942;2023-06-22T01:07:18;23.10;99.90
37446;DHT22;23307;51.136;14.942;2023-06-22T01:12:42;23.10;99.90
37446;DHT22;23307;51.136;14.942;2023-06-22T01:15:23;23.10;99.90
37446;DHT22;23307;51.136;14.942;2023-06-22T01:17:52;23.00;99.90
37446;DHT22;23307;51.136;14.942;2023-06-22T01:20:20;22.90;99.90
37446;DHT22;23307;51.136;14.942;2023-06-22T01:25:48;22.80;99.90
37446;DHT22;23307;51.136;14.942;2023-06-22T01:28:42;22.80;99.90
37446;DHT22;23307;51.136;14.942;2023-06-22T01:31:10;22.70;99.90
37446;DHT22;23307;51.136;14.942;2023-06-22T01:33:41;22.60;99.90
37446;DHT22;23307;51.136;14.942;2023-06-22T01:36:07;22.50;99.90
37446;DHT22;23307;51.136;14.942;2023-06-22T01:38:33;22.40;99.90
37446;DHT22;23307;51.136;14.942;2023-06-22T01:41:00;22.40;99.90
37446;DHT22;23307;51.136;14.942;2023-06-22T01:43:27;22.30;99.90
37446;DHT22;23307;51.136;14.942;2023-06-22T01:45:54;22.20;99.90
37446;DHT22;23307;51.136;14.942;2023-06-22T01:48:20;22.20;99.90
37446;DHT22;23307;51.136;14.942;2023-06-22T01:50:47;22.10;99.90
37446;DHT22;23307;51.136;14.942;2023-06-22T01:53:12;22.00;99.90
37446;DHT22;23307;51.136;14.942;2023-06-22T01:55:38;21.90;99.90
37446;DHT22;23307;51.136;14.942;2023-06-22T01:58:03;21.90;99.90
37446;DHT22;23307;51.136;14.942;2023-06-22T02:00:32;21.90;99.90
37446;DHT22;23307;51.136;14.942;2023-06-22T02:03:03;21.90;99.90
37446;DHT22;23307;51.136;14.942;2023-06-22T02:05:35;21.80;99.90
37446;DHT22;23307;51.136;14.942;2023-06-22T02:11:23;21.70;99.90
37446;DHT22;23307;51.136;14.942;2023-06-22T02:13:51;21.60;99.90
37446;DHT22;23307;51.136;14.942;2023-06-22T02:16:17;21.60;99.90
37446;DHT22;23307;51.136;14.942;2023-06-22T02:18:50;21.70;99.90
37446;DHT22;23307;51.136;14.942;2023-06-22T02:21:19;21.70;99.90
37446;DHT22;23307;51.136;14.942;2023-06-22T02:23:45;21.80;99.90
37446;DHT22;23307;51.136;14.942;2023-06-22T02:26:12;21.80;99.90
37446;DHT22;23307;51.136;14.942;2023-06-22T02:28:38;21.80;99.90
37446;DHT22;23307;51.136;14.942;2023-06-22T02:31:03;21.80;99.90
37446;DHT22;23307;51.136;14.942;2023-06-22T02:33:29;21.80;99.90
37446;DHT22;23307;51.136;14.942;2023-06-22T02:35:54;21.80;99.90
37446;DHT22;23307;51.136;14.942;2023-06-22T02:38:20;21.80;99.90
37446;DHT22;23307;51.136;14.942;2023-06-22T02:40:46;21.80;99.90
37446;DHT22;23307;51.136;14.942;2023-06-22T02:43:13;21.90;99.90
37446;DHT22;23307;51.136;14.942;2023-06-22T02:45:38;21.90;99.90
37446;DHT22;23307;51.136;14.942;2023-06-22T02:48:04;21.90;99.90
37446;DHT22;23307;51.136;14.942;2023-06-22T02:50:30;21.90;99.90
37446;DHT22;23307;51.136;14.942;2023-06-22T02:52:55;21.90;99.90
37446;DHT22;23307;51.136;14.942;2023-06-22T02:55:21;21.90;99.90
37446;DHT22;23307;51.136;14.942;2023-06-22T02:57:46;21.90;99.90
37446;DHT22;23307;51.136;14.942;2023-06-22T03:00:14;21.90;99.90
37446;DHT22;23307;51.136;14.942;2023-06-22T03:02:44;21.90;99.90
37446;DHT22;23307;51.136;14.942;2023-06-22T03:05:10;21.90;99.90
37446;DHT22;23307;51.136;14.942;2023-06-22T03:07:39;21.90;99.90
37446;DHT22;23307;51.136;14.942;2023-06-22T03:10:06;21.90;99.90
37446;DHT22;23307;51.136;14.942;2023-06-22T03:12:31;21.90;99.90
37446;DHT22;23307;51.136;14.942;2023-06-22T03:14:57;21.90;99.90
37446;DHT22;23307;51.136;14.942;2023-06-22T03:17:23;21.90;99.90
37446;DHT22;23307;51.136;14.942;2023-06-22T03:19:48;21.90;99.90
37446;DHT22;23307;51.136;14.942;2023-06-22T03:22:14;21.90;99.90
37446;DHT22;23307;51.136;14.942;2023-06-22T03:24:40;22.00;99.90
37446;DHT22;23307;51.136;14.942;2023-06-22T03:27:05;22.00;99.90
37446;DHT22;23307;51.136;14.942;2023-06-22T03:29:31;22.00;99.90
37446;DHT22;23307;51.136;14.942;2023-06-22T03:31:57;22.00;99.90
37446;DHT22;23307;51.136;14.942;2023-06-22T03:34:22;22.00;99.90
37446;DHT22;23307;51.136;14.942;2023-06-22T03:36:47;22.00;99.90
37446;DHT22;23307;51.136;14.942;2023-06-22T03:39:13;22.00;99.90
37446;DHT22;23307;51.136;14.942;2023-06-22T03:41:38;22.00;99.90
37446;DHT22;23307;51.136;14.942;2023-06-22T03:44:04;22.00;99.90
37446;DHT22;23307;51.136;14.942;2023-06-22T03:46:30;22.00;99.90
37446;DHT22;23307;51.136;14.942;2023-06-22T03:48:55;22.00;99.90
37446;DHT22;23307;51.136;14.942;2023-06-22T03:51:21;22.00;99.90
37446;DHT22;23307;51.136;14.942;2023-06-22T03:53:46;21.90;99.90
37446;DHT22;23307;51.136;14.942;2023-06-22T03:56:13;22.00;99.90
37446;DHT22;23307;51.136;14.942;2023-06-22T03:58:45;22.00;99.90
37446;DHT22;23307;51.136;14.942;2023-06-22T04:01:11;22.00;99.90
37446;DHT22;23307;51.136;14.942;2023-06-22T04:03:37;22.00;99.90
37446;DHT22;23307;51.136;14.942;2023-06-22T04:06:03;22.10;99.90
37446;DHT22;23307;51.136;14.942;2023-06-22T04:08:28;22.10;99.90
37446;DHT22;23307;51.136;14.942;2023-06-22T04:10:54;22.10;99.90
37446;DHT22;23307;51.136;14.942;2023-06-22T04:13:19;22.10;99.90
37446;DHT22;23307;51.136;14.942;2023-06-22T04:15:45;22.20;99.90
37446;DHT22;23307;51.136;14.942;2023-06-22T04:18:10;22.20;99.90
37446;DHT22;23307;51.136;14.942;2023-06-22T04:20:36;22.20;99.90
37446;DHT22;23307;51.136;14.942;2023-06-22T04:23:01;22.20;99.90
37446;DHT22;23307;51.136;14.942;2023-06-22T04:25:27;22.20;99.90
37446;DHT22;23307;51.136;14.942;2023-06-22T04:27:52;22.30;99.90
37446;DHT22;23307;51.136;14.942;2023-06-22T04:30:18;22.30;99.90
37446;DHT22;23307;51.136;14.942;2023-06-22T04:32:44;22.40;99.90
37446;DHT22;23307;51.136;14.942;2023-06-22T04:35:10;22.40;99.90
37446;DHT22;23307;51.136;14.942;2023-06-22T04:37:36;22.40;99.90
37446;DHT22;23307;51.136;14.942;2023-06-22T04:40:01;22.40;99.90
37446;DHT22;23307;51.136;14.942;2023-06-22T04:42:29;22.50;99.90
37446;DHT22;23307;51.136;14.942;2023-06-22T04:44:55;22.50;99.90
37446;DHT22;23307;51.136;14.942;2023-06-22T04:47:21;22.60;99.90
37446;DHT22;23307;51.136;14.942;2023-06-22T04:49:46;22.60;99.90
37446;DHT22;23307;51.136;14.942;2023-06-22T04:52:13;22.70;99.90
37446;DHT22;23307;51.136;14.942;2023-06-22T04:54:39;22.70;99.90
37446;DHT22;23307;51.136;14.942;2023-06-22T04:57:13;22.80;99.90
37446;DHT22;23307;51.136;14.942;2023-06-22T04:59:39;22.80;99.90
37446;DHT22;23307;51.136;14.942;2023-06-22T05:02:07;22.90;99.90
37446;DHT22;23307;51.136;14.942;2023-06-22T05:04:33;22.90;99.90
37446;DHT22;23307;51.136;14.942;2023-06-22T05:07:01;23.00;99.90
37446;DHT22;23307;51.136;14.942;2023-06-22T05:09:26;23.00;99.90
37446;DHT22;23307;51.136;14.942;2023-06-22T05:11:52;23.10;99.90
37446;DHT22;23307;51.136;14.942;2023-06-22T05:14:18;23.20;99.90
37446;DHT22;23307;51.136;14.942;2023-06-22T05:16:44;23.20;99.90
37446;DHT22;23307;51.136;14.942;2023-06-22T05:19:10;23.30;99.90
37446;DHT22;23307;51.136;14.942;2023-06-22T05:21:36;23.30;99.90
37446;DHT22;23307;51.136;14.942;2023-06-22T05:24:02;23.40;99.90
37446;DHT22;23307;51.136;14.942;2023-06-22T05:26:29;23.50;99.90
37446;DHT22;23307;51.136;14.942;2023-06-22T05:28:55;23.50;99.90
37446;DHT22;23307;51.136;14.942;2023-06-22T05:31:20;23.60;99.90
37446;DHT22;23307;51.136;14.942;2023-06-22T05:33:47;23.70;99.90
37446;DHT22;23307;51.136;14.942;2023-06-22T05:36:13;23.70;99.90
37446;DHT22;23307;51.136;14.942;2023-06-22T05:38:39;23.80;99.90
37446;DHT22;23307;51.136;14.942;2023-06-22T05:41:05;23.90;99.90
37446;DHT22;23307;51.136;14.942;2023-06-22T05:43:31;24.00;99.90
37446;DHT22;23307;51.136;14.942;2023-06-22T05:45:57;24.00;99.90
37446;DHT22;23307;51.136;14.942;2023-06-22T05:48:23;24.20;99.90
37446;DHT22;23307;51.136;14.942;2023-06-22T05:50:49;24.20;99.90
37446;DHT22;23307;51.136;14.942;2023-06-22T05:53:14;24.30;99.90
37446;DHT22;23307;51.136;14.942;2023-06-22T05:55:40;24.40;99.90
37446;DHT22;23307;51.136;14.942;2023-06-22T05:58:06;24.50;99.90
37446;DHT22;23307;51.136;14.942;2023-06-22T06:00:32;24.60;99.90
37446;DHT22;23307;51.136;14.942;2023-06-22T06:02:58;24.60;99.90
37446;DHT22;23307;51.136;14.942;2023-06-22T06:05:31;24.70;99.90
37446;DHT22;23307;51.136;14.942;2023-06-22T06:07:58;24.80;99.90
37446;DHT22;23307;51.136;14.942;2023-06-22T06:10:25;24.80;99.90
37446;DHT22;23307;51.136;14.942;2023-06-22T06:12:51;24.90;99.90
37446;DHT22;23307;51.136;14.942;2023-06-22T06:15:17;25.00;99.90
37446;DHT22;23307;51.136;14.942;2023-06-22T06:17:47;25.10;99.90
37446;DHT22;23307;51.136;14.942;2023-06-22T06:20:14;25.20;99.90
37446;DHT22;23307;51.136;14.942;2023-06-22T06:22:39;25.20;99.90
37446;DHT22;23307;51.136;14.942;2023-06-22T06:25:05;25.30;99.90
37446;DHT22;23307;51.136;14.942;2023-06-22T06:27:31;25.30;99.90
37446;DHT22;23307;51.136;14.942;2023-06-22T06:29:57;25.30;99.90
37446;DHT22;23307;51.136;14.942;2023-06-22T06:32:28;25.40;99.90
37446;DHT22;23307;51.136;14.942;2023-06-22T06:34:54;25.60;99.90
37446;DHT22;23307;51.136;14.942;2023-06-22T06:37:19;25.60;99.90
37446;DHT22;23307;51.136;14.942;2023-06-22T06:39:45;25.70;99.90
37446;DHT22;23307;51.136;14.942;2023-06-22T06:42:10;25.80;99.90
37446;DHT22;23307;51.136;14.942;2023-06-22T06:44:37;25.90;99.90
37446;DHT22;23307;51.136;14.942;2023-06-22T06:47:04;26.00;99.90
37446;DHT22;23307;51.136;14.942;2023-06-22T06:49:29;26.10;99.90
37446;DHT22;23307;51.136;14.942;2023-06-22T06:51:55;26.10;99.90
37446;DHT22;23307;51.136;14.942;2023-06-22T06:54:21;26.30;99.90
37446;DHT22;23307;51.136;14.942;2023-06-22T06:56:47;26.40;99.90
37446;DHT22;23307;51.136;14.942;2023-06-22T06:59:14;26.50;99.90
37446;DHT22;23307;51.136;14.942;2023-06-22T07:01:41;26.60;99.90
37446;DHT22;23307;51.136;14.942;2023-06-22T07:04:06;26.60;99.90
37446;DHT22;23307;51.136;14.942;2023-06-22T07:06:32;26.60;99.90
37446;DHT22;23307;51.136;14.942;2023-06-22T07:08:59;26.70;99.90
37446;DHT22;23307;51.136;14.942;2023-06-22T07:11:25;26.80;99.90
37446;DHT22;23307;51.136;14.942;2023-06-22T07:13:50;26.90;99.90
37446;DHT22;23307;51.136;14.942;2023-06-22T07:16:16;27.00;99.90
37446;DHT22;23307;51.136;14.942;2023-06-22T07:18:41;27.10;99.90
37446;DHT22;23307;51.136;14.942;2023-06-22T07:21:07;27.20;99.90
37446;DHT22;23307;51.136;14.942;2023-06-22T07:23:33;27.30;99.90
37446;DHT22;23307;51.136;14.942;2023-06-22T07:25:58;27.30;99.90
37446;DHT22;23307;51.136;14.942;2023-06-22T07:28:27;27.40;99.90
37446;DHT22;23307;51.136;14.942;2023-06-22T07:30:53;27.60;99.90
37446;DHT22;23307;51.136;14.942;2023-06-22T07:33:19;27.60;99.90
37446;DHT22;23307;51.136;14.942;2023-06-22T07:35:45;27.80;99.90
37446;DHT22;23307;51.136;14.942;2023-06-22T07:38:12;27.90;99.90
37446;DHT22;23307;51.136;14.942;2023-06-22T07:40:37;27.90;99.90
37446;DHT22;23307;51.136;14.942;2023-06-22T07:43:03;28.00;99.90
37446;DHT22;23307;51.136;14.942;2023-06-22T07:45:29;28.00;99.90
37446;DHT22;23307;51.136;14.942;2023-06-22T07:47:55;28.20;99.90
37446;DHT22;23307;51.136;14.942;2023-06-22T07:50:20;28.20;99.90
37446;DHT22;23307;51.136;14.942;2023-06-22T07:52:46;28.30;99.90
37446;DHT22;23307;51.136;14.942;2023-06-22T07:55:13;28.20;99.90
37446;DHT22;23307;51.136;14.942;2023-06-22T07:57:38;28.10;99.90
37446;DHT22;23307;51.136;14.942;2023-06-22T08:00:05;28.10;99.90
37446;DHT22;23307;51.136;14.942;2023-06-22T08:02:39;28.00;99.90
37446;DHT22;23307;51.136;14.942;2023-06-22T08:05:05;27.90;99.90
37446;DHT22;23307;51.136;14.942;2023-06-22T08:07:33;27.90;99.90
37446;DHT22;23307;51.136;14.942;2023-06-22T08:10:03;28.00;99.90
37446;DHT22;23307;51.136;14.942;2023-06-22T08:12:28;28.20;99.90
37446;DHT22;23307;51.136;14.942;2023-06-22T08:14:54;28.20;99.90
37446;DHT22;23307;51.136;14.942;2023-06-22T08:17:19;28.30;99.90
37446;DHT22;23307;51.136;14.942;2023-06-22T08:19:45;28.40;99.90
37446;DHT22;23307;51.136;14.942;2023-06-22T08:22:10;28.40;99.90
37446;DHT22;23307;51.136;14.942;2023-06-22T08:24:37;28.50;99.90
37446;DHT22;23307;51.136;14.942;2023-06-22T08:27:02;28.70;99.90
37446;DHT22;23307;51.136;14.942;2023-06-22T08:29:28;28.80;99.90
37446;DHT22;23307;51.136;14.942;2023-06-22T08:31:53;29.00;99.90
37446;DHT22;23307;51.136;14.942;2023-06-22T08:34:19;29.20;99.90
37446;DHT22;23307;51.136;14.942;2023-06-22T08:36:53;29.30;99.90
37446;DHT22;23307;51.136;14.942;2023-06-22T08:39:19;29.50;99.90
37446;DHT22;23307;51.136;14.942;2023-06-22T08:41:46;29.60;99.90
37446;DHT22;23307;51.136;14.942;2023-06-22T08:44:12;29.80;99.90
37446;DHT22;23307;51.136;14.942;2023-06-22T08:46:37;29.90;99.90
37446;DHT22;23307;51.136;14.942;2023-06-22T08:49:04;29.80;99.90
37446;DHT22;23307;51.136;14.942;2023-06-22T08:51:29;29.80;99.90
37446;DHT22;23307;51.136;14.942;2023-06-22T08:53:55;29.90;99.90
37446;DHT22;23307;51.136;14.942;2023-06-22T08:56:20;30.10;99.90
37446;DHT22;23307;51.136;14.942;2023-06-22T08:58:46;30.20;99.90
37446;DHT22;23307;51.136;14.942;2023-06-22T09:01:11;30.30;99.90
37446;DHT22;23307;51.136;14.942;2023-06-22T09:03:37;30.30;99.90
37446;DHT22;23307;51.136;14.942;2023-06-22T09:06:03;30.30;99.90
37446;DHT22;23307;51.136;14.942;2023-06-22T09:08:28;30.30;99.90
37446;DHT22;23307;51.136;14.942;2023-06-22T09:10:54;30.30;99.70
37446;DHT22;23307;51.136;14.942;2023-06-22T09:13:19;30.10;99.80
37446;DHT22;23307;51.136;14.942;2023-06-22T09:15:45;30.10;99.90
37446;DHT22;23307;51.136;14.942;2023-06-22T09:18:11;30.30;99.90
37446;DHT22;23307;51.136;14.942;2023-06-22T09:20:37;30.30;99.90
37446;DHT22;23307;51.136;14.942;2023-06-22T09:23:02;30.30;99.90
37446;DHT22;23307;51.136;14.942;2023-06-22T09:25:28;30.50;99.90
37446;DHT22;23307;51.136;14.942;2023-06-22T09:27:53;30.70;99.90
37446;DHT22;23307;51.136;14.942;2023-06-22T09:30:19;30.80;99.30
37446;DHT22;23307;51.136;14.942;2023-06-22T09:32:45;30.80;99.40
37446;DHT22;23307;51.136;14.942;2023-06-22T09:35:10;30.70;99.80
37446;DHT22;23307;51.136;14.942;2023-06-22T09:37:38;30.60;98.40
37446;DHT22;23307;51.136;14.942;2023-06-22T09:40:04;30.40;98.30
37446;DHT22;23307;51.136;14.942;2023-06-22T09:42:38;30.40;99.20
37446;DHT22;23307;51.136;14.942;2023-06-22T09:45:05;30.60;98.60
37446;DHT22;23307;51.136;14.942;2023-06-22T09:47:31;30.70;98.50
37446;DHT22;23307;51.136;14.942;2023-06-22T09:49:56;30.90;98.20
37446;DHT22;23307;51.136;14.942;2023-06-22T09:52:24;31.00;97.40
37446;DHT22;23307;51.136;14.942;2023-06-22T09:54:49;31.10;96.50
37446;DHT22;23307;51.136;14.942;2023-06-22T09:57:15;31.20;96.10
37446;DHT22;23307;51.136;14.942;2023-06-22T09:59:41;31.20;95.00
37446;DHT22;23307;51.136;14.942;2023-06-22T10:02:06;31.40;95.50
37446;DHT22;23307;51.136;14.942;2023-06-22T10:04:33;31.50;94.70
37446;DHT22;23307;51.136;14.942;2023-06-22T10:06:59;31.70;95.60
37446;DHT22;23307;51.136;14.942;2023-06-22T10:09:25;31.70;94.80
37446;DHT22;23307;51.136;14.942;2023-06-22T10:11:50;31.80;95.90
37446;DHT22;23307;51.136;14.942;2023-06-22T10:14:16;31.90;95.60
37446;DHT22;23307;51.136;14.942;2023-06-22T10:16:42;32.00;95.60
37446;DHT22;23307;51.136;14.942;2023-06-22T10:19:07;32.20;94.80
37446;DHT22;23307;51.136;14.942;2023-06-22T10:21:33;32.20;94.80
37446;DHT22;23307;51.136;14.942;2023-06-22T10:23:59;32.10;94.50
37446;DHT22;23307;51.136;14.942;2023-06-22T10:26:34;32.20;94.70
37446;DHT22;23307;51.136;14.942;2023-06-22T10:29:01;32.20;94.40
37446;DHT22;23307;51.136;14.942;2023-06-22T10:31:27;32.30;94.60
37446;DHT22;23307;51.136;14.942;2023-06-22T10:33:53;32.20;93.20
37446;DHT22;23307;51.136;14.942;2023-06-22T10:36:19;32.10;94.10
37446;DHT22;23307;51.136;14.942;2023-06-22T10:38:44;32.10;93.40
37446;DHT22;23307;51.136;14.942;2023-06-22T10:41:10;32.30;94.30
37446;DHT22;23307;51.136;14.942;2023-06-22T10:43:36;32.60;93.50
37446;DHT22;23307;51.136;14.942;2023-06-22T10:46:01;32.70;93.50
37446;DHT22;23307;51.136;14.942;2023-06-22T10:48:27;33.00;92.90
37446;DHT22;23307;51.136;14.942;2023-06-22T10:50:52;33.20;91.80
37446;DHT22;23307;51.136;14.942;2023-06-22T10:53:18;33.00;90.10
37446;DHT22;23307;51.136;14.942;2023-06-22T10:55:44;33.00;91.60
37446;DHT22;23307;51.136;14.942;2023-06-22T10:58:09;33.00;90.50
37446;DHT22;23307;51.136;14.942;2023-06-22T11:00:35;33.00;91.00
37446;DHT22;23307;51.136;14.942;2023-06-22T11:03:00;33.10;89.80
37446;DHT22;23307;51.136;14.942;2023-06-22T11:05:26;33.00;90.70
37446;DHT22;23307;51.136;14.942;2023-06-22T11:07:51;33.10;89.90
37446;DHT22;23307;51.136;14.942;2023-06-22T11:10:17;33.20;89.00
37446;DHT22;23307;51.136;14.942;2023-06-22T11:12:42;33.20;90.10
37446;DHT22;23307;51.136;14.942;2023-06-22T11:15:08;33.40;89.30
37446;DHT22;23307;51.136;14.942;2023-06-22T11:17:34;33.60;90.20
37446;DHT22;23307;51.136;14.942;2023-06-22T11:20:00;33.60;88.60
37446;DHT22;23307;51.136;14.942;2023-06-22T11:22:26;33.80;88.30
37446;DHT22;23307;51.136;14.942;2023-06-22T11:24:51;33.90;88.50
37446;DHT22;23307;51.136;14.942;2023-06-22T11:27:17;33.90;86.00
37446;DHT22;23307;51.136;14.942;2023-06-22T11:29:42;33.90;85.80
37446;DHT22;23307;51.136;14.942;2023-06-22T11:32:08;33.70;83.60
37446;DHT22;23307;51.136;14.942;2023-06-22T11:34:35;33.60;83.80
37446;DHT22;23307;51.136;14.942;2023-06-22T11:37:01;33.60;87.00
37446;DHT22;23307;51.136;14.942;2023-06-22T11:39:26;33.80;87.50
37446;DHT22;23307;51.136;14.942;2023-06-22T11:41:52;34.10;85.00
37446;DHT22;23307;51.136;14.942;2023-06-22T11:44:18;34.20;82.90
37446;DHT22;23307;51.136;14.942;2023-06-22T11:46:43;34.10;84.20
37446;DHT22;23307;51.136;14.942;2023-06-22T11:49:09;34.10;85.70
37446;DHT22;23307;51.136;14.942;2023-06-22T11:51:34;34.40;87.80
37446;DHT22;23307;51.136;14.942;2023-06-22T11:54:00;34.60;85.00
37446;DHT22;23307;51.136;14.942;2023-06-22T11:56:26;34.90;83.60
37446;DHT22;23307;51.136;14.942;2023-06-22T11:58:53;34.90;82.70
37446;DHT22;23307;51.136;14.942;2023-06-22T12:01:19;34.80;81.30
37446;DHT22;23307;51.136;14.942;2023-06-22T12:03:44;34.80;83.70
37446;DHT22;23307;51.136;14.942;2023-06-22T12:06:10;35.00;84.90
37446;DHT22;23307;51.136;14.942;2023-06-22T12:08:36;35.30;84.60
37446;DHT22;23307;51.136;14.942;2023-06-22T12:11:02;35.40;79.80
37446;DHT22;23307;51.136;14.942;2023-06-22T12:13:27;35.10;80.60
37446;DHT22;23307;51.136;14.942;2023-06-22T12:15:53;34.90;80.20
37446;DHT22;23307;51.136;14.942;2023-06-22T12:18:19;34.80;83.10
37446;DHT22;23307;51.136;14.942;2023-06-22T12:20:46;35.00;85.50
37446;DHT22;23307;51.136;14.942;2023-06-22T12:23:12;35.20;83.10
37446;DHT22;23307;51.136;14.942;2023-06-22T12:25:38;35.50;81.50
37446;DHT22;23307;51.136;14.942;2023-06-22T12:28:03;35.60;78.90
37446;DHT22;23307;51.136;14.942;2023-06-22T12:30:30;35.50;81.10
37446;DHT22;23307;51.136;14.942;2023-06-22T12:32:56;35.80;82.70
37446;DHT22;23307;51.136;14.942;2023-06-22T12:35:21;35.90;80.70
37446;DHT22;23307;51.136;14.942;2023-06-22T12:37:47;35.50;78.70
37446;DHT22;23307;51.136;14.942;2023-06-22T12:40:12;35.10;79.40
37446;DHT22;23307;51.136;14.942;2023-06-22T12:42:38;35.20;82.40
37446;DHT22;23307;51.136;14.942;2023-06-22T12:45:04;35.60;81.40
37446;DHT22;23307;51.136;14.942;2023-06-22T12:47:30;36.00;82.20
37446;DHT22;23307;51.136;14.942;2023-06-22T12:49:55;36.20;78.50
37446;DHT22;23307;51.136;14.942;2023-06-22T12:52:21;36.40;81.00
37446;DHT22;23307;51.136;14.942;2023-06-22T12:54:46;36.50;80.10
37446;DHT22;23307;51.136;14.942;2023-06-22T12:57:12;36.60;79.50
37446;DHT22;23307;51.136;14.942;2023-06-22T12:59:38;36.70;77.40
37446;DHT22;23307;51.136;14.942;2023-06-22T13:02:03;36.70;77.70
37446;DHT22;23307;51.136;14.942;2023-06-22T13:04:29;36.80;78.70
37446;DHT22;23307;51.136;14.942;2023-06-22T13:06:55;37.00;78.10
37446;DHT22;23307;51.136;14.942;2023-06-22T13:09:21;36.90;77.40
37446;DHT22;23307;51.136;14.942;2023-06-22T13:11:46;37.10;79.00
37446;DHT22;23307;51.136;14.942;2023-06-22T13:14:12;37.30;77.00
37446;DHT22;23307;51.136;14.942;2023-06-22T13:16:37;37.40;76.30
37446;DHT22;23307;51.136;14.942;2023-06-22T13:19:03;37.40;76.60
37446;DHT22;23307;51.136;14.942;2023-06-22T13:21:29;37.40;74.20
37446;DHT22;23307;51.136;14.942;2023-06-22T13:23:55;37.10;75.80
37446;DHT22;23307;51.136;14.942;2023-06-22T13:26:21;36.90;76.60
37446;DHT22;23307;51.136;14.942;2023-06-22T13:28:46;37.10;75.60
37446;DHT22;23307;51.136;14.942;2023-06-22T13:31:12;37.20;76.30
37446;DHT22;23307;51.136;14.942;2023-06-22T13:33:38;37.30;75.90
37446;DHT22;23307;51.136;14.942;2023-06-22T13:36:04;37.50;77.10
37446;DHT22;23307;51.136;14.942;2023-06-22T13:38:31;37.80;74.50
37446;DHT22;23307;51.136;14.942;2023-06-22T13:40:57;37.70;74.60
37446;DHT22;23307;51.136;14.942;2023-06-22T13:43:26;37.70;74.60
37446;DHT22;23307;51.136;14.942;2023-06-22T13:45:52;37.80;74.70
37446;DHT22;23307;51.136;14.942;2023-06-22T13:48:17;37.70;73.10
37446;DHT22;23307;51.136;14.942;2023-06-22T13:50:43;37.70;73.80
37446;DHT22;23307;51.136;14.942;2023-06-22T13:53:09;37.60;72.40
37446;DHT22;23307;51.136;14.942;2023-06-22T13:55:34;37.60;74.50
37446;DHT22;23307;51.136;14.942;2023-06-22T13:58:00;37.20;71.00
37446;DHT22;23307;51.136;14.942;2023-06-22T14:00:25;36.70;75.70
37446;DHT22;23307;51.136;14.942;2023-06-22T14:02:53;36.90;76.00
37446;DHT22;23307;51.136;14.942;2023-06-22T14:05:18;37.10;76.10
37446;DHT22;23307;51.136;14.942;2023-06-22T14:07:44;37.40;75.30
37446;DHT22;23307;51.136;14.942;2023-06-22T14:10:10;37.40;74.00
37446;DHT22;23307;51.136;14.942;2023-06-22T14:12:35;37.20;72.30
37446;DHT22;23307;51.136;14.942;2023-06-22T14:15:01;36.80;73.30
37446;DHT22;23307;51.136;14.942;2023-06-22T14:17:26;36.50;74.70
37446;DHT22;23307;51.136;14.942;2023-06-22T14:19:52;36.40;74.40
37446;DHT22;23307;51.136;14.942;2023-06-22T14:22:19;36.40;74.50
37446;DHT22;23307;51.136;14.942;2023-06-22T14:24:46;36.50;75.20
37446;DHT22;23307;51.136;14.942;2023-06-22T14:27:11;36.70;73.70
37446;DHT22;23307;51.136;14.942;2023-06-22T14:29:37;36.60;73.80
37446;DHT22;23307;51.136;14.942;2023-06-22T14:32:02;36.70;73.70
37446;DHT22;23307;51.136;14.942;2023-06-22T14:34:28;36.80;74.60
37446;DHT22;23307;51.136;14.942;2023-06-22T14:36:54;36.90;74.00
37446;DHT22;23307;51.136;14.942;2023-06-22T14:39:19;37.10;74.10
37446;DHT22;23307;51.136;14.942;2023-06-22T14:41:46;37.00;72.90
37446;DHT22;23307;51.136;14.942;2023-06-22T14:44:11;37.00;72.20
37446;DHT22;23307;51.136;14.942;2023-06-22T14:46:37;37.20;74.70
37446;DHT22;23307;51.136;14.942;2023-06-22T14:49:02;37.30;74.20
37446;DHT22;23307;51.136;14.942;2023-06-22T14:51:28;37.40;73.00
37446;DHT22;23307;51.136;14.942;2023-06-22T14:53:53;37.30;71.60
37446;DHT22;23307;51.136;14.942;2023-06-22T14:56:19;37.10;70.40
37446;DHT22;23307;51.136;14.942;2023-06-22T14:58:45;36.90;72.60
37446;DHT22;23307;51.136;14.942;2023-06-22T15:01:11;36.70;71.80
37446;DHT22;23307;51.136;14.942;2023-06-22T15:03:37;36.50;73.50
37446;DHT22;23307;51.136;14.942;2023-06-22T15:06:03;36.50;73.40
37446;DHT22;23307;51.136;14.942;2023-06-22T15:08:29;36.50;72.60
37446;DHT22;23307;51.136;14.942;2023-06-22T15:10:57;36.70;74.70
37446;DHT22;23307;51.136;14.942;2023-06-22T15:13:23;36.90;73.30
37446;DHT22;23307;51.136;14.942;2023-06-22T15:15:50;37.10;72.10
37446;DHT22;23307;51.136;14.942;2023-06-22T15:18:16;37.20;73.00